Time;durP1;ratioP1;P1;durP2;ratioP2;P2;SDS_P1;SDS_P2;PMS_P1;PMS_P2;Temp;Humidity;BMP_temperature;BMP_pressure;BME280_temperature;BME280_humidity;BME280_pressure;Samples;Min_cycle;Max_cycle;Signal;HPM_P1;HPM_P2
2022/10/04 00:01:54;;;;;;;13.18;4.75;;;19.50;96.50;;;19.38;68.05;98767.34;5108233;28;19926;-74
2022/10/04 00:04:38;;;;;;;5.73;4.20;;;19.50;96.50;;;19.40;68.11;98769.78;5100412;28;20459;-74
2022/10/04 00:07:14;;;;;;;9.23;4.43;;;19.50;96.50;;;19.39;68.56;98770.91;5104579;28;20043;-76
2022/10/04 00:10:01;;;;;;;7.85;4.70;;;19.50;96.60;;;19.40;68.49;98772.53;5070490;28;20046;-74
2022/10/04 00:12:32;;;;;;;8.90;4.47;;;19.50;96.60;;;19.37;68.16;98774.00;5104141;28;20118;-74
2022/10/04 00:15:01;;;;;;;9.35;4.93;;;19.50;96.50;;;19.37;68.13;98784.19;5076331;28;20036;-74
2022/10/04 00:17:35;;;;;;;7.25;4.60;;;19.60;96.60;;;19.35;68.38;98780.97;5080668;28;20040;-74
2022/10/04 00:20:03;;;;;;;12.23;4.43;;;19.60;96.60;;;19.33;68.34;98777.72;5090775;28;20040;-74
2022/10/04 00:22:31;;;;;;;7.70;4.43;;;19.50;96.50;;;19.36;68.68;98782.56;5075674;28;20043;-74
2022/10/04 00:25:07;;;;;;;8.77;4.80;;;19.50;96.60;;;19.36;68.73;98772.38;5104292;28;20060;-74
2022/10/04 00:27:37;;;;;;;7.32;5.07;;;19.50;96.60;;;19.36;68.24;98772.38;5103324;28;20501;-74
2022/10/04 00:30:02;;;;;;;10.10;4.90;;;19.50;96.60;;;19.36;68.19;98772.38;5059102;28;20051;-74
2022/10/04 00:32:30;;;;;;;8.95;5.10;;;19.50;96.50;;;19.35;68.19;98759.75;5100760;28;20598;-74
2022/10/04 00:34:58;;;;;;;8.30;5.03;;;19.50;96.60;;;19.38;68.24;98766.53;5109348;28;20109;-74
2022/10/04 00:37:25;;;;;;;5.05;3.70;;;19.50;96.50;;;19.36;68.33;98758.63;5100555;28;20047;-74
2022/10/04 00:40:17;;;;;;;8.07;4.25;;;19.50;96.60;;;19.36;68.68;98757.81;5072138;28;20141;-74
2022/10/04 00:42:54;;;;;;;7.63;4.57;;;19.50;96.70;;;19.35;68.46;98761.72;5106901;28;20462;-74
2022/10/04 00:45:53;;;;;;;6.90;4.28;;;19.50;96.60;;;19.34;68.32;98752.66;5072105;28;20031;-74
2022/10/04 00:48:36;;;;;;;6.45;4.47;;;19.50;96.60;;;19.33;68.54;98752.97;5077002;28;20118;-74
2022/10/04 00:51:04;;;;;;;5.65;4.28;;;19.50;96.60;;;19.35;68.36;98754.25;5102392;28;20040;-74
2022/10/04 00:53:46;;;;;;;7.72;3.90;;;19.50;96.60;;;19.36;68.86;98757.81;5090030;28;20032;-74
2022/10/04 00:56:47;;;;;;;8.82;4.07;;;19.50;96.60;;;19.35;68.43;98751.50;5100229;28;20072;-74
2022/10/04 00:59:41;;;;;;;9.48;4.70;;;19.50;96.60;;;19.36;68.45;98752.31;5105453;28;20139;-74
2022/10/04 01:02:20;;;;;;;8.10;3.83;;;19.50;96.50;;;19.34;68.18;98758.16;5103604;28;20056;-74
2022/10/04 01:05:05;;;;;;;11.07;4.32;;;19.50;96.60;;;19.33;68.10;98758.47;5086562;28;20052;-74
2022/10/04 01:07:41;;;;;;;7.63;3.90;;;19.50;96.50;;;19.32;68.40;98754.94;5102604;28;20040;-74
2022/10/04 01:10:39;;;;;;;11.43;4.53;;;19.40;96.50;;;19.33;68.41;98751.03;5105469;28;20447;-75
2022/10/04 01:13:22;;;;;;;5.97;4.03;;;19.40;96.60;;;19.34;68.49;98751.84;5092992;28;20054;-74
2022/10/04 01:16:06;;;;;;;6.50;4.00;;;19.50;96.60;;;19.30;68.54;98749.75;5091878;28;20595;-74
2022/10/04 01:18:33;;;;;;;6.78;3.95;;;19.50;96.50;;;19.30;68.45;98749.75;5059451;28;20071;-74
2022/10/04 01:21:18;;;;;;;7.53;4.05;;;19.50;96.60;;;19.29;68.45;98748.16;5085673;28;20047;-74
2022/10/04 01:23:56;;;;;;;6.10;4.10;;;19.50;96.50;;;19.30;68.30;98744.25;5100820;28;20101;-74
2022/10/04 01:26:28;;;;;;;7.88;4.45;;;19.50;96.50;;;19.33;68.71;98747.47;5103562;28;20099;-74
2022/10/04 01:29:33;;;;;;;7.85;3.97;;;19.50;96.60;;;19.29;68.93;98748.16;5119156;27;20044;-74
2022/10/04 01:31:59;;;;;;;7.78;4.13;;;19.50;97.00;;;19.30;68.57;98746.19;5098249;28;20056;-74
2022/10/04 01:34:28;;;;;;;6.95;4.13;;;19.50;96.60;;;19.29;68.49;98745.41;5067390;28;20040;-74
2022/10/04 01:36:58;;;;;;;6.75;4.13;;;19.50;96.50;;;19.29;68.50;98737.16;5089045;28;20056;-74
2022/10/04 01:39:26;;;;;;;7.90;3.75;;;19.50;96.50;;;19.27;68.46;98739.41;5101220;28;20063;-74
2022/10/04 01:42:13;;;;;;;7.60;4.35;;;19.50;96.50;;;19.30;68.35;98744.25;5071330;28;20517;-74
2022/10/04 01:45:07;;;;;;;9.32;4.97;;;19.50;96.60;;;19.23;69.22;98755.00;5101110;28;20044;-75
2022/10/04 01:47:56;;;;;;;6.38;3.90;;;19.50;96.70;;;19.30;68.75;98747.00;5101839;28;20811;-74
2022/10/04 01:50:29;;;;;;;5.85;3.70;;;19.50;96.60;;;19.30;68.57;98748.94;5090606;28;20039;-74
2022/10/04 01:53:19;;;;;;;6.72;3.45;;;19.40;96.50;;;19.31;68.42;98747.81;5092300;28;20157;-74
2022/10/04 01:55:49;;;;;;;6.13;3.78;;;19.50;96.50;;;19.25;68.59;98741.69;5084683;28;20052;-74
2022/10/04 01:58:32;;;;;;;5.90;2.80;;;19.40;96.50;;;19.29;68.69;98748.16;5073132;28;20054;-74
2022/10/04 02:01:22;;;;;;;3.72;3.15;;;19.40;96.60;;;19.29;68.59;98744.59;5103111;28;20059;-74
2022/10/04 02:04:10;;;;;;;6.53;3.72;;;19.40;96.60;;;19.26;68.81;98743.31;5064441;28;20055;-74
2022/10/04 02:06:39;;;;;;;7.90;4.53;;;19.40;96.60;;;19.27;68.68;98746.88;5085863;28;20040;-74
2022/10/04 02:09:22;;;;;;;6.13;4.07;;;19.40;96.50;;;19.27;68.40;98744.91;5101830;28;20612;-74
2022/10/04 02:11:52;;;;;;;9.05;3.97;;;19.40;96.50;;;19.27;68.45;98746.88;5072542;28;20048;-74
2022/10/04 02:14:24;;;;;;;6.05;3.85;;;19.40;96.50;;;19.25;68.71;98744.44;5086504;28;20047;-74
2022/10/04 02:16:52;;;;;;;;;;;19.50;96.60;;;19.24;69.08;98747.53;5067281;28;20047;-74
2022/10/04 02:19:24;;;;;;;5.93;3.38;;;19.40;96.70;;;19.28;68.98;98752.06;5103595;28;19919;-74
2022/10/04 02:21:50;;;;;;;;;;;19.50;96.70;;;19.26;68.69;98751.56;5088822;28;20582;-74
2022/10/04 02:24:17;;;;;;;4.95;3.50;;;19.40;96.60;;;19.26;68.46;98743.31;5086929;28;19923;-74
2022/10/04 02:26:49;;;;;;;5.82;3.75;;;19.40;96.50;;;19.24;68.48;98742.84;5083789;28;20059;-74
2022/10/04 02:29:17;;;;;;;4.38;3.13;;;19.40;96.60;;;19.24;68.77;98751.09;5099933;28;20032;-75
2022/10/04 02:34:28;;;;;;;5.57;3.53;;;19.40;96.60;;;19.25;69.04;98751.88;5087679;28;20125;-76
2022/10/04 02:36:55;;;;;;;3.83;2.95;;;19.40;96.70;;;19.24;68.69;98751.09;5098349;28;20048;-76
2022/10/04 02:39:28;;;;;;;4.68;3.03;;;19.40;96.60;;;19.24;68.74;98747.53;5072905;28;20110;-76
2022/10/04 02:42:14;;;;;;;5.78;3.33;;;19.40;96.60;;;19.23;68.56;98754.16;5069544;28;20074;-76
2022/10/04 02:44:55;;;;;;;3.90;2.65;;;19.40;96.60;;;19.23;68.80;98756.91;5068150;28;20579;-76
2022/10/04 02:47:28;;;;;;;6.93;2.65;;;19.40;96.60;;;19.23;68.97;98755.00;5070089;28;20042;-76
2022/10/04 02:50:00;;;;;;;5.22;3.22;;;19.40;96.70;;;19.22;69.21;98753.34;5086225;28;20050;-76
2022/10/04 02:52:38;;;;;;;5.93;3.00;;;19.40;96.70;;;19.22;68.76;98747.88;5055912;28;20059;-76
2022/10/04 02:55:11;;;;;;;4.95;3.20;;;19.40;96.60;;;19.24;68.88;98747.53;5102101;28;20044;-76
2022/10/04 02:57:38;;;;;;;4.25;2.72;;;19.40;96.60;;;19.20;68.88;98757.59;5102843;28;20040;-76
2022/10/04 03:00:26;;;;;;;6.85;4.10;;;19.40;96.60;;;19.18;68.97;98749.66;5069940;28;20052;-76
2022/10/04 03:03:16;;;;;;;5.43;2.92;;;19.40;96.60;;;19.20;69.07;98752.09;5099942;28;20040;-76
2022/10/04 03:06:04;;;;;;;5.47;3.38;;;19.40;96.70;;;19.18;69.38;98755.16;5096371;28;20081;-76
2022/10/04 03:08:42;;;;;;;9.00;3.88;;;19.40;96.70;;;19.17;69.27;98759.06;5096833;28;20066;-76
2022/10/04 03:11:08;;;;;;;5.05;3.47;;;19.40;96.60;;;19.21;68.93;98761.94;5087684;28;20449;-76
2022/10/04 03:13:36;;;;;;;4.05;2.55;;;19.40;96.60;;;19.20;68.85;98758.38;5060303;28;20507;-76
2022/10/04 03:16:02;;;;;;;4.10;2.78;;;19.40;96.60;;;19.16;69.15;98754.69;5079589;28;20610;-76
2022/10/04 03:18:29;;;;;;;5.18;3.65;;;19.40;96.60;;;19.19;69.26;98761.47;5064525;28;20040;-76
2022/10/04 03:20:56;;;;;;;3.42;2.78;;;19.30;96.70;;;19.18;69.23;98757.91;5084459;28;20497;-76
2022/10/04 03:23:22;;;;;;;3.70;2.78;;;19.40;96.70;;;19.19;69.12;98747.72;5084501;28;20067;-76
2022/10/04 03:26:44;;;;;;;4.72;3.40;;;19.30;96.70;;;19.20;69.03;98747.38;5053303;28;20043;-76
2022/10/04 03:29:11;;;;;;;6.68;3.47;;;19.30;96.60;;;19.17;69.05;98741.75;5088322;28;20043;-76
2022/10/04 03:31:46;;;;;;;3.25;2.90;;;19.30;96.60;;;19.17;68.86;98742.56;5066957;28;20378;-76
2022/10/04 03:34:21;;;;;;;4.72;2.58;;;19.30;96.60;;;19.18;69.24;98743.34;5055649;28;20044;-76
2022/10/04 03:36:48;;;;;;;3.58;2.13;;;19.40;96.70;;;19.16;69.57;98740.94;5098810;28;20044;-77
2022/10/04 03:39:28;;;;;;;3.30;2.70;;;19.30;96.70;;;19.16;69.54;98751.13;5101915;28;20166;-77
2022/10/04 03:41:56;;;;;;;5.05;2.80;;;19.30;96.70;;;19.16;69.19;98751.13;5089818;28;20525;-75
2022/10/04 03:44:22;;;;;;;4.28;2.92;;;19.30;96.60;;;19.16;69.14;98751.94;5086974;28;20043;-76
2022/10/04 03:46:48;;;;;;;3.70;2.25;;;19.30;96.60;;;19.15;68.94;98753.06;5083979;28;20044;-76
2022/10/04 03:49:30;;;;;;;3.10;2.85;;;19.30;96.60;;;19.14;69.17;98759.72;5098945;28;20125;-75
2022/10/04 03:51:57;;;;;;;5.10;3.28;;;19.30;96.60;;;19.17;69.53;98769.25;5065107;28;20351;-76
2022/10/04 03:54:26;;;;;;;3.28;2.83;;;19.30;96.70;;;19.12;68.48;98767.50;5092774;28;20036;-75
2022/10/04 03:56:53;;;;;;;3.83;2.40;;;19.30;96.50;;;19.11;68.53;98770.56;5085619;28;20055;-75
2022/10/04 03:59:19;;;;;;;4.72;2.42;;;19.20;96.40;;;19.08;68.26;98763.78;5065161;28;20089;-75
2022/10/04 04:02:10;;;;;;;3.90;2.53;;;19.20;96.40;;;19.09;68.46;98776.41;5064584;28;20059;-75
2022/10/04 04:04:45;;;;;;;5.35;2.40;;;19.20;96.40;;;19.11;69.18;98765.88;5099289;28;20047;-75
2022/10/04 04:07:38;;;;;;;4.03;2.67;;;19.30;96.70;;;19.08;69.06;98767.34;5100029;28;20040;-75
2022/10/04 04:10:23;;;;;;;5.65;2.20;;;19.20;96.60;;;19.10;68.23;98772.50;5090032;28;20122;-76
2022/10/04 04:13:07;;;;;;;4.15;2.95;;;19.20;96.40;;;19.09;68.25;98773.66;5076241;28;20110;-75
2022/10/04 04:15:34;;;;;;;2.25;2.05;;;19.20;96.40;;;19.04;68.12;98769.13;5103563;27;20123;-75
2022/10/04 04:18:05;;;;;;;3.03;2.05;;;19.20;96.40;;;19.08;67.95;98777.53;5100714;28;20055;-75
2022/10/04 04:20:35;;;;;;;3.97;2.30;;;19.20;96.40;;;19.09;68.56;98773.66;5068413;28;20036;-75
2022/10/04 04:23:10;;;;;;;3.37;1.83;;;19.20;96.60;;;19.09;68.91;98779.16;5102656;28;20047;-75
2022/10/04 04:25:38;;;;;;;4.30;2.58;;;19.20;96.60;;;19.03;68.50;98780.44;5102251;28;20036;-75
2022/10/04 04:28:43;;;;;;;3.30;2.20;;;19.20;96.40;;;19.02;68.12;98789.84;5086601;28;20079;-75
2022/10/04 04:31:27;;;;;;;4.13;2.17;;;19.20;96.40;;;19.03;67.75;98785.94;5072705;28;20042;-75
2022/10/04 04:34:01;;;;;;;6.55;2.40;;;19.20;96.40;;;18.99;67.78;98783.06;5090271;28;20066;-75
2022/10/04 04:36:38;;;;;;;2.63;1.85;;;19.10;96.30;;;19.04;68.27;98787.59;5093105;27;20424;-76
2022/10/04 04:39:38;;;;;;;3.95;2.13;;;19.10;96.50;;;19.02;68.28;98789.84;5085257;28;20046;-75
2022/10/04 04:42:18;;;;;;;2.47;1.63;;;19.20;96.50;;;19.03;67.90;98786.78;5104712;28;20115;-75
2022/10/04 04:44:55;;;;;;;2.45;1.88;;;19.10;96.30;;;19.01;67.52;98782.75;5087571;28;20130;-75
2022/10/04 04:47:57;;;;;;;3.85;2.10;;;19.10;96.30;;;18.97;67.79;98793.56;5089260;28;20085;-75
2022/10/04 04:50:34;;;;;;;3.22;2.22;;;19.10;96.30;;;18.96;67.83;98802.19;5032104;28;20126;-75
2022/10/04 04:53:03;;;;;;;2.55;1.80;;;19.10;96.30;;;19.01;67.66;98797.28;5095899;28;20447;-75
2022/10/04 04:55:36;;;;;;;2.50;1.80;;;19.10;96.30;;;19.03;68.00;98794.19;5102424;28;20032;-75
2022/10/04 04:58:02;;;;;;;1.77;1.67;;;19.10;96.30;;;19.02;67.27;98800.84;5087207;28;20143;-75
2022/10/04 05:00:30;;;;;;;3.05;1.77;;;19.10;96.30;;;19.02;67.20;98809.09;5085835;27;20052;-75
2022/10/04 05:02:59;;;;;;;3.40;2.05;;;19.10;96.30;;;19.01;66.93;98802.00;5087690;28;20054;-76
2022/10/04 05:05:26;;;;;;;3.20;1.88;;;19.10;96.20;;;19.00;66.52;98805.84;5082276;28;20558;-76
2022/10/04 05:08:15;;;;;;;2.38;1.67;;;19.10;96.10;;;19.01;67.18;98804.75;5082396;28;21052;-75
2022/10/04 05:10:57;;;;;;;2.85;2.00;;;19.10;96.30;;;19.02;67.27;98812.63;5100969;28;20057;-75
2022/10/04 05:14:04;;;;;;;4.93;2.33;;;19.10;96.20;;;19.04;67.00;98813.13;5079116;28;20035;-76
2022/10/04 05:16:49;;;;;;;3.40;1.70;;;19.20;96.20;;;19.02;66.73;98811.84;5098934;28;20552;-75
2022/10/04 05:19:31;;;;;;;2.22;1.65;;;19.10;96.00;;;18.94;66.73;98815.44;5081712;28;20078;-76
2022/10/04 05:22:05;;;;;;;1.95;1.25;;;19.10;96.10;;;19.04;66.30;98828.81;5072402;28;20050;-76
2022/10/04 05:24:34;;;;;;;2.60;1.85;;;19.10;96.10;;;19.01;66.67;98832.22;5067414;28;20044;-76
2022/10/04 05:27:13;;;;;;;2.30;1.42;;;19.10;96.20;;;19.04;66.89;98834.31;5084465;28;20039;-76
2022/10/04 05:29:40;;;;;;;3.10;1.95;;;19.10;96.20;;;19.05;67.33;98835.91;5081402;28;20039;-78
2022/10/04 05:32:28;;;;;;;3.13;2.08;;;19.20;96.20;;;19.01;66.73;98848.72;5070005;28;20591;-76
2022/10/04 05:34:54;;;;;;;3.63;1.70;;;19.20;96.00;;;19.02;66.11;98850.31;5101241;28;20483;-76
2022/10/04 05:37:53;;;;;;;4.25;1.65;;;19.10;95.90;;;19.02;65.94;98848.38;5065991;28;20039;-76
2022/10/04 05:40:40;;;;;;;3.50;1.58;;;19.10;96.00;;;19.05;65.83;98852.41;5092165;28;20051;-75
2022/10/04 05:43:33;;;;;;;5.03;1.80;;;19.10;95.90;;;19.08;66.54;98857.25;5112301;27;20462;-74
2022/10/04 05:46:24;;;;;;;4.72;1.52;;;19.10;96.10;;;19.10;66.09;98854.97;5096768;28;20520;-74
2022/10/04 05:49:00;;;;;;;2.00;1.65;;;19.20;96.00;;;19.03;66.06;98860.16;5097906;28;20048;-74
2022/10/04 05:51:29;;;;;;;2.88;1.73;;;19.20;95.90;;;19.06;65.65;98856.78;5070284;28;20118;-74
2022/10/04 05:54:00;;;;;;;3.85;1.35;;;19.10;95.90;;;19.06;65.71;98863.09;5064227;28;20044;-74
2022/10/04 05:57:03;;;;;;;1.80;1.58;;;19.20;96.00;;;19.06;65.88;98874.09;5067380;28;20505;-74
2022/10/04 05:59:38;;;;;;;4.75;1.77;;;19.20;95.90;;;19.09;65.62;98872.63;5099838;28;20578;-74
2022/10/04 06:02:36;;;;;;;1.30;1.15;;;19.20;95.90;;;19.11;65.76;98877.78;5096042;28;20070;-74
2022/10/04 06:05:14;;;;;;;3.58;2.05;;;19.20;95.90;;;19.15;65.87;98885.03;5097295;28;20055;-74
2022/10/04 06:07:52;;;;;;;2.25;1.42;;;19.20;96.00;;;19.16;65.78;98883.94;5082748;28;20439;-74
2022/10/04 06:10:51;;;;;;;1.98;1.48;;;19.20;96.00;;;19.18;65.49;98887.13;5068665;28;20040;-74
2022/10/04 06:13:51;;;;;;;2.10;1.63;;;19.20;95.90;;;19.16;65.76;98892.19;5098076;28;20039;-74
2022/10/04 06:16:38;;;;;;;4.07;1.55;;;19.20;96.30;;;19.20;65.35;98901.38;5103215;28;20046;-74
2022/10/04 06:19:35;;;;;;;2.17;1.45;;;19.20;95.90;;;19.20;65.61;98895.06;5089971;28;20055;-74
2022/10/04 06:22:15;;;;;;;1.35;1.25;;;19.20;96.00;;;19.19;65.67;98904.47;5084257;28;20101;-74
2022/10/04 06:24:48;;;;;;;10.48;1.92;;;19.30;96.00;;;19.18;66.03;98900.09;5083585;28;20039;-74
2022/10/04 06:27:25;;;;;;;3.75;1.45;;;19.20;95.90;;;19.15;65.99;98904.28;5067427;28;20506;-74
2022/10/04 06:30:03;;;;;;;3.67;1.55;;;19.20;95.90;;;19.17;65.76;98907.53;5097580;28;20582;-74
2022/10/04 06:32:51;;;;;;;3.28;1.77;;;19.20;95.90;;;19.22;65.09;98901.06;5065257;28;20079;-74
2022/10/04 06:35:29;;;;;;;2.88;1.63;;;19.30;95.90;;;19.22;65.47;98907.34;5102433;28;20437;-74
2022/10/04 06:38:25;;;;;;;1.55;1.17;;;19.30;95.90;;;19.25;65.31;98908.63;5093446;28;20051;-74
2022/10/04 06:41:24;;;;;;;1.45;1.27;;;19.30;95.90;;;19.25;65.49;98905.88;5088839;28;20047;-74
2022/10/04 06:44:32;;;;;;;1.75;1.00;;;19.30;95.90;;;19.25;65.35;98911.38;5095205;28;20131;-74
2022/10/04 06:47:35;;;;;;;1.73;1.40;;;19.30;95.90;;;19.29;64.94;98912.34;5089849;28;20066;-74
2022/10/04 06:50:36;;;;;;;2.55;1.50;;;19.30;95.90;;;19.32;64.92;98927.41;5096910;28;20415;-74
2022/10/04 06:53:29;;;;;;;3.15;1.73;;;19.30;95.90;;;19.32;65.04;98921.91;5086329;28;20075;-74
2022/10/04 06:56:25;;;;;;;1.20;1.10;;;19.30;96.00;;;19.32;65.14;98936.44;5096768;28;20480;-74
2022/10/04 06:59:16;;;;;;;3.88;1.45;;;19.30;95.90;;;19.31;64.92;98940.34;5088976;28;20062;-74
2022/10/04 07:01:49;;;;;;;1.70;1.00;;;19.40;95.80;;;19.29;65.04;98943.41;5069663;28;20163;-74
2022/10/04 07:05:04;;;;;;;1.25;1.15;;;19.40;95.80;;;19.29;65.06;98948.09;5081511;28;20583;-74
2022/10/04 07:07:36;;;;;;;3.40;1.50;;;19.40;95.80;;;19.29;64.88;98953.59;5064017;28;20062;-74
2022/10/04 07:10:07;;;;;;;4.45;1.70;;;19.40;95.90;;;19.34;65.06;98949.88;5080024;28;20035;-74
2022/10/04 07:12:34;;;;;;;2.25;1.75;;;19.40;95.90;;;19.33;65.04;98954.56;5092328;28;20241;-74
2022/10/04 07:15:01;;;;;;;3.10;1.60;;;19.40;95.80;;;19.35;65.00;98962.50;5077977;28;20071;-74
2022/10/04 07:17:36;;;;;;;2.40;1.50;;;19.40;95.80;;;19.34;64.79;98961.69;5100772;28;20044;-74
2022/10/04 07:20:03;;;;;;;2.08;1.70;;;19.40;95.80;;;19.35;64.60;98962.50;5081606;28;20092;-74
2022/10/04 07:22:42;;;;;;;3.33;2.22;;;19.40;95.80;;;19.37;64.67;98968.47;5062552;28;20170;-74
2022/10/04 07:25:29;;;;;;;7.53;2.35;;;19.40;95.80;;;19.39;64.94;98972.50;5097523;28;20181;-74
2022/10/04 07:31:05;;;;;;;9.85;3.30;;;19.40;95.80;;;19.42;64.46;98969.09;5093565;28;20129;-74
2022/10/04 07:33:34;;;;;;;6.03;2.95;;;19.50;95.80;;;19.40;64.54;98979.63;5076696;28;20426;-74
2022/10/04 07:36:09;;;;;;;6.65;3.85;;;19.50;95.80;;;19.41;64.42;98981.25;5077091;28;20043;-74
2022/10/04 07:39:00;;;;;;;7.78;4.40;;;19.50;95.70;;;19.43;64.35;98983.66;5082476;28;20510;-74
2022/10/04 07:41:29;;;;;;;;;;;19.50;95.70;;;19.46;64.33;98980.25;5100940;27;20054;-74
2022/10/04 07:44:36;;;;;;;10.00;5.30;;;19.50;95.80;;;19.47;64.36;98985.44;5101386;28;19927;-74
2022/10/04 07:47:28;;;;;;;13.75;4.45;;;19.50;95.80;;;19.49;64.12;98990.63;5032296;28;20081;-74
2022/10/04 07:49:54;;;;;;;;;;;19.50;95.70;;;19.51;64.01;98991.91;5051442;28;20519;-74
2022/10/04 07:53:01;;;;;;;10.00;3.97;;;19.50;95.60;;;19.52;63.68;98993.50;5086431;28;19926;-74
2022/10/04 07:55:54;;;;;;;11.00;4.88;;;19.50;95.60;;;19.55;63.68;99002.25;5099429;28;20101;-74
2022/10/04 07:58:39;;;;;;;15.82;6.28;;;19.50;95.60;;;19.58;63.64;98996.88;5087585;28;20114;-74
2022/10/04 08:01:46;;;;;;;18.30;5.63;;;19.60;95.70;;;19.64;63.18;99003.00;5099061;28;20060;-74
2022/10/04 08:04:36;;;;;;;12.85;6.00;;;19.60;95.60;;;19.62;63.29;99006.09;5103346;28;20178;-74
2022/10/04 08:07:20;;;;;;;15.95;5.38;;;19.60;95.60;;;19.59;63.37;99001.25;5098515;28;20059;-74
2022/10/04 08:10:25;;;;;;;11.77;4.65;;;19.60;95.50;;;19.55;63.61;99000.28;5086884;28;20048;-74
2022/10/04 08:13:29;;;;;;;19.70;6.68;;;19.60;95.60;;;19.55;63.84;99014.06;5094234;28;20070;-74
2022/10/04 08:16:03;;;;;;;18.38;6.75;;;19.60;95.60;;;19.56;63.88;99010.16;5103598;28;20538;-74
2022/10/04 08:19:10;;;;;;;13.65;6.20;;;19.60;95.60;;;19.55;63.55;99013.25;5082471;28;20536;-74
2022/10/04 08:22:37;;;;;;;14.82;7.50;;;19.70;95.60;;;19.53;63.70;99025.38;5080982;28;20052;-74
2022/10/04 08:25:08;;;;;;;11.45;5.55;;;19.70;95.50;;;19.52;63.84;99022.97;5099967;28;20453;-74
2022/10/04 08:31:28;;;;;;;17.27;7.80;;;19.70;95.50;;;19.56;63.88;99031.38;5091157;28;19926;-74
2022/10/04 08:34:15;;;;;;;20.88;8.00;;;19.70;95.60;;;19.55;63.94;99038.00;5082996;28;20713;-74
2022/10/04 08:37:05;;;;;;;14.70;6.97;;;19.70;95.60;;;19.57;63.53;99031.03;5095422;28;20045;-74
2022/10/04 08:39:35;;;;;;;12.25;5.75;;;19.70;95.50;;;19.62;63.25;99044.63;5101026;28;20118;-74
2022/10/04 08:42:24;;;;;;;15.15;7.57;;;19.70;95.50;;;19.64;63.12;99047.88;5099316;28;20052;-74
2022/10/04 08:45:37;;;;;;;21.10;8.45;;;19.70;95.50;;;19.64;63.35;99049.78;5093892;28;20040;-74
2022/10/04 08:48:09;;;;;;;18.40;7.90;;;19.70;95.50;;;19.61;63.58;99048.50;5098824;28;20052;-74
2022/10/04 08:51:11;;;;;;;20.65;9.48;;;19.70;95.50;;;19.57;63.79;99050.31;5097124;28;20127;-74
2022/10/04 08:54:02;;;;;;;19.17;7.40;;;19.70;95.50;;;19.57;63.71;99046.75;5100834;28;20036;-74
2022/10/04 08:57:09;;;;;;;18.95;6.93;;;19.70;95.40;;;19.59;63.51;99048.03;5095563;28;20046;-74
2022/10/04 09:00:41;;;;;;;16.20;7.53;;;19.70;95.40;;;19.62;63.35;99055.63;5101042;28;20055;-74
2022/10/04 09:03:25;;;;;;;22.02;9.20;;;19.70;95.30;;;19.63;63.55;99059.19;5092041;28;20064;-74
2022/10/04 09:06:37;;;;;;;16.08;8.90;;;19.70;95.50;;;19.63;63.65;99057.25;5100088;28;20050;-74
2022/10/04 09:09:18;;;;;;;24.95;8.82;;;19.70;95.50;;;19.64;63.41;99047.03;5097293;28;20043;-74
2022/10/04 09:12:09;;;;;;;16.17;8.52;;;19.80;95.40;;;19.67;63.08;99057.44;5093429;28;20852;-74
2022/10/04 09:15:12;;;;;;;21.75;7.95;;;19.80;95.40;;;19.66;63.24;99058.53;5099471;28;20032;-74
2022/10/04 09:18:07;;;;;;;16.80;7.45;;;19.80;95.40;;;19.65;63.36;99063.22;5098942;28;20044;-74
2022/10/04 09:21:12;;;;;;;20.23;9.20;;;19.80;95.40;;;19.68;63.33;99070.84;5081651;28;20110;-74
2022/10/04 09:24:06;;;;;;;20.50;8.55;;;19.80;95.40;;;19.70;63.00;99070.53;5102219;28;20114;-74
2022/10/04 09:26:38;;;;;;;17.23;7.32;;;19.80;95.30;;;19.76;62.71;99076.66;5097399;28;20119;-74
2022/10/04 09:29:22;;;;;;;;;;;19.80;95.30;;;19.80;62.45;99072.13;5097349;28;20511;-74
2022/10/04 09:32:36;;;;;;;16.33;8.10;;;19.80;95.20;;;19.86;61.90;99076.31;5098299;28;19930;-74
2022/10/04 09:35:41;;;;;;;15.55;7.95;;;19.90;95.20;;;19.88;62.13;99087.81;5085786;28;20453;-74
2022/10/04 09:38:37;;;;;;;20.80;8.80;;;19.90;95.20;;;19.87;61.97;99081.50;5097921;28;20334;-74
2022/10/04 09:41:36;;;;;;;17.25;7.95;;;19.90;95.20;;;19.93;61.56;99087.63;5087510;28;20075;-74
2022/10/04 09:44:33;;;;;;;15.38;7.70;;;19.90;95.10;;;20.01;61.36;99095.06;5106712;27;20436;-74
2022/10/04 09:47:40;;;;;;;15.82;7.60;;;20.00;95.10;;;20.01;61.16;99097.00;5098622;28;20123;-74
2022/10/04 09:50:34;;;;;;;19.50;9.07;;;20.00;95.10;;;20.02;61.27;99099.41;5095144;28;20123;-74
2022/10/04 09:53:51;;;;;;;20.88;8.20;;;20.00;95.10;;;20.00;61.46;99098.97;5100934;28;20047;-74
2022/10/04 09:56:49;;;;;;;19.65;8.48;;;20.00;95.10;;;20.02;61.15;99096.66;5101335;28;20413;-74
2022/10/04 09:59:41;;;;;;;18.02;7.90;;;20.00;95.10;;;20.07;60.88;99106.69;5099263;28;20040;-74
2022/10/04 10:02:45;;;;;;;21.85;7.82;;;20.00;95.10;;;20.05;60.70;99104.28;5100402;28;20491;-74
2022/10/04 10:06:07;;;;;;;18.73;8.32;;;20.00;95.10;;;20.01;61.16;99110.78;5096854;28;20040;-74
2022/10/04 10:09:13;;;;;;;18.05;8.18;;;20.00;95.10;;;19.98;61.66;99116.94;5093350;28;20529;-74
2022/10/04 10:15:41;;;;;;;16.75;7.43;;;20.00;95.10;;;19.96;61.33;99114.50;5096541;28;20244;-74
2022/10/04 10:18:46;;;;;;;18.27;7.95;;;20.00;95.10;;;19.99;61.11;99110.28;5100028;28;20055;-74
2022/10/04 10:21:18;;;;;;;15.68;6.72;;;20.00;95.10;;;20.08;60.85;99111.09;5079516;28;20075;-74
2022/10/04 10:24:06;;;;;;;18.15;8.23;;;20.00;95.10;;;20.08;61.10;99120.16;5097047;28;20383;-74
2022/10/04 10:27:24;;;;;;;25.88;8.93;;;20.10;95.20;;;20.10;60.86;99117.88;5096171;28;20151;-74
2022/10/04 10:29:58;;;;;;;10.70;6.97;;;20.10;95.20;;;20.14;60.34;99118.81;5098428;28;20048;-74
2022/10/04 10:32:35;;;;;;;21.70;8.50;;;20.10;95.00;;;20.14;60.36;99118.00;5095538;28;20152;-74
2022/10/04 10:36:01;;;;;;;13.80;7.88;;;20.10;95.00;;;20.16;60.15;99118.50;5095259;28;20043;-74
2022/10/04 10:39:07;;;;;;;16.35;7.82;;;20.10;95.00;;;20.14;60.42;99116.06;5089603;28;20128;-74
2022/10/04 10:41:43;;;;;;;17.63;8.23;;;20.20;95.00;;;20.13;60.63;99119.16;5101824;28;20550;-74
2022/10/04 10:44:28;;;;;;;19.45;8.45;;;20.10;95.00;;;20.19;60.14;99122.53;5099068;28;20055;-74
2022/10/04 10:47:31;;;;;;;19.08;8.23;;;20.10;95.00;;;20.15;60.34;99125.16;5099909;28;20065;-74
2022/10/04 10:50:15;;;;;;;12.52;7.20;;;20.20;95.00;;;20.14;60.22;99115.25;5095765;28;20074;-74
2022/10/04 10:53:19;;;;;;;12.57;6.47;;;20.20;94.90;;;20.09;60.48;99119.00;5100292;28;20039;-74
2022/10/04 10:56:27;;;;;;;15.40;7.35;;;20.20;94.80;;;20.04;60.62;99127.44;5097816;28;20040;-74
2022/10/04 10:59:17;;;;;;;20.58;7.45;;;20.30;94.80;;;20.10;60.55;99128.88;5094215;28;20075;-74
2022/10/04 11:02:04;;;;;;;14.23;7.75;;;20.30;94.80;;;20.03;60.57;99128.59;5094202;28;20063;-74
2022/10/04 11:04:38;;;;;;;16.33;8.00;;;20.30;94.80;;;20.02;60.83;99117.88;5096501;28;20061;-74
2022/10/04 11:07:38;;;;;;;19.15;7.30;;;20.30;94.80;;;20.05;60.63;99126.31;5095609;28;20119;-74
2022/10/04 11:10:25;;;;;;;13.45;6.68;;;20.30;94.80;;;20.07;60.56;99126.78;5096292;28;20085;-74
2022/10/04 11:13:28;;;;;;;15.48;7.43;;;20.20;94.80;;;20.09;60.52;99126.47;5093940;28;20047;-75
2022/10/04 11:16:09;;;;;;;11.20;6.35;;;20.30;94.80;;;20.13;60.23;99130.97;5100130;28;20047;-74
2022/10/04 11:19:29;;;;;;;15.82;7.53;;;20.30;94.80;;;20.12;60.42;99139.56;5097659;28;20044;-74
2022/10/04 11:22:15;;;;;;;11.80;6.57;;;20.30;94.70;;;20.14;60.20;99146.34;5102076;28;20391;-74
2022/10/04 11:25:15;;;;;;;12.73;6.80;;;20.30;94.70;;;20.20;59.88;99138.75;5099351;28;20118;-74
2022/10/04 11:28:13;;;;;;;14.43;6.63;;;20.40;94.70;;;20.25;59.59;99143.25;5102373;28;20419;-74
2022/10/04 11:31:22;;;;;;;13.90;5.82;;;20.40;94.60;;;20.28;59.78;99145.38;5098779;28;20039;-74
2022/10/04 11:34:10;;;;;;;14.25;7.47;;;20.40;94.60;;;20.30;59.58;99137.56;5094163;28;20055;-74
2022/10/04 11:37:04;;;;;;;14.55;6.85;;;20.40;94.60;;;20.31;59.48;99139.19;5096040;28;20036;-74
2022/10/04 11:39:48;;;;;;;12.38;7.10;;;20.40;94.50;;;20.25;59.50;99146.84;5082519;28;20044;-74
2022/10/04 11:42:53;;;;;;;14.98;5.85;;;20.40;94.60;;;20.24;59.55;99147.94;5100600;28;20127;-74